Flight Track Log - Related Links

Times and Time Zones

All times are in EDT time to prevent confusion due to time zone crossing. See the N946CE flight status page for this flight to view local times or setup timezone preferences in your user account.

Time Position Orientation Groundspeed Altitude Reporting Facility
EDT Latitude Longitude Course Direction KTS MPH feet Rate Location/Type
Thu 03:19:33 PM 43.6167 -79.3833 236° Southwest 140 161 600  Level Toronto Center
Thu 03:20:33 PM 43.5833 -79.4000 200° South 160 184 2,100 1,600 Climbing Toronto Center
Thu 03:21:33 PM 43.5333 -79.4000 180° South 170 196 3,800 1,050 Climbing Toronto Center
Thu 03:22:33 PM 43.4833 -79.4500 216° Southwest 200 230 4,200 900 Climbing Toronto Center
Thu 03:23:33 PM 43.4500 -79.5167 235° Southwest 210 242 5,600 900 Climbing Toronto Center
Thu 03:24:00 PM 43.3635 -79.7598 224° Southwest  Level FlightAware Approximate
Thu 03:24:33 PM 43.4000 -79.5667 216° Southwest 220 253 6,000  Level Toronto Center
Thu 03:25:00 PM 43.3215 -79.8237 236° Southwest  Level FlightAware Approximate
Thu 03:25:33 PM 43.3500 -79.6333 224° Southwest 240 276 6,500  Level Toronto Center
Thu 03:26:33 PM 43.3167 -79.7000 236° Southwest 220 253 8,000 1,650 Climbing Toronto Center
Thu 03:27:33 PM 43.2667 -79.7500 216° Southwest 210 242 9,800 2,000 Climbing Toronto Center
Thu 03:28:33 PM 43.2333 -79.8000 228° Southwest 180 207 12,000 2,000 Climbing Toronto Center
Thu 03:29:33 PM 43.2167 -79.8667 251° West 170 196 13,800 1,700 Climbing Toronto Center
Thu 03:30:33 PM 43.2167 -79.9333 270° West 180 207 15,400 1,800 Climbing Toronto Center
Thu 03:31:33 PM 43.2000 -79.9833 245° Southwest 170 196 17,400 1,300 Climbing Toronto Center
Thu 03:32:33 PM 43.1833 -80.0500 251° West 180 207 18,000 300 Climbing Toronto Center
Thu 03:33:33 PM 43.1667 -80.1333 255° West 240 276 18,000  Level Toronto Center
Thu 03:34:33 PM 43.1500 -80.2333 257° West 250 288 18,000  Level Toronto Center
Thu 03:35:33 PM 43.1333 -80.3333 257° West 250 288 18,000  Level Toronto Center
Thu 03:36:33 PM 43.1167 -80.4167 255° West 250 288 18,000  Level Toronto Center
Thu 03:37:33 PM 43.1000 -80.5000 255° West 240 276 18,000  Level Toronto Center
Thu 03:38:33 PM 43.0833 -80.6000 257° West 240 276 18,000  Level Toronto Center
Thu 03:39:33 PM 43.0667 -80.6833 255° West 240 276 18,000  Level Toronto Center
Thu 03:40:33 PM 43.0500 -80.7667 255° West 240 276 18,000  Level Toronto Center
Thu 03:41:33 PM 43.0167 -80.8667 246° West 240 276 18,000  Level Toronto Center
Thu 03:42:33 PM 43.0000 -80.9500 255° West 250 288 18,000  Level Toronto Center
Thu 03:43:33 PM 43.0000 -81.0500 270° West 240 276 18,000  Level Toronto Center
Thu 03:44:33 PM 42.9833 -81.1333 255° West 240 276 18,000  Level Toronto Center
Thu 03:45:33 PM 42.9667 -81.2333 257° West 250 288 18,000  Level Toronto Center
Thu 03:46:33 PM 42.9500 -81.3167 255° West 250 288 18,000  Level Toronto Center
Thu 03:47:33 PM 42.9333 -81.4167 257° West 250 288 18,000  Level Toronto Center
Thu 03:48:33 PM 42.9167 -81.5000 255° West 250 288 18,000  Level Toronto Center
Thu 03:49:33 PM 42.9000 -81.5833 255° West 240 276 18,000 -650 Level Toronto Center
Thu 03:50:33 PM 42.8833 -81.6833 257° West 250 288 16,700 -1,444 Descending Toronto Center
Thu 03:51:46 PM 42.8644 -81.7956 257° West 244 281 14,800 -1,624 Descending Cleveland Center
Thu 03:52:46 PM 42.8489 -81.8831 256° West 244 281 13,100 -1,400 Descending Cleveland Center
Thu 03:53:46 PM 42.8311 -81.9733 255° West 244 281 12,000 -1,150 Descending Cleveland Center
Thu 03:54:46 PM 42.8114 -82.0578 252° West 239 275 10,800 -1,000 Descending Cleveland Center
Thu 03:55:46 PM 42.7917 -82.1308 250° West 232 267 10,000 -400 Descending Cleveland Center
Thu 03:56:46 PM 42.7739 -82.2094 253° West 221 254 10,000  Level Cleveland Center
Thu 03:57:46 PM 42.7728 -82.2886 269° West 216 249 10,000  Level Cleveland Center
Thu 03:58:46 PM 42.7672 -82.3678 265° West 216 249 10,000  Level Cleveland Center
Thu 03:59:46 PM 42.7639 -82.4469 267° West 216 249 10,000  Level Cleveland Center
Thu 04:00:46 PM 42.7583 -82.5286 265° West 216 249 10,000 -350 Level Cleveland Center
Thu 04:01:46 PM 42.7592 -82.6078 271° West 216 249 9,300 -1,009 Descending Cleveland Center
Thu 04:02:39 PM 42.7517 -82.6783 262° West 208 239 8,100 -1,300 Descending Cleveland Center
Thu 04:03:46 PM 42.7503 -82.7575 269° West 216 249 6,700 -1,328 Descending Cleveland Center
Thu 04:04:41 PM 42.7403 -82.8364 260° West 208 239 5,400 -1,293 Descending Cleveland Center
Thu 04:05:42 PM 42.7306 -82.9094 260° West 205 236 4,200 -656 Descending Cleveland Center
Thu 04:06:49 PM 42.7183 -82.9994 260° West 199 229 4,000 -93 Descending Cleveland Center
Thu 04:07:51 PM 42.7106 -83.0725 262° West 198 228 4,000 -195 Level Cleveland Center
Thu 04:08:52 PM 42.6983 -83.1511 258° West 207 238 3,600 -414 Descending Cleveland Center
Thu 04:09:47 PM 42.6928 -83.2158 263° West 200 230 3,200 -492 Descending Cleveland Center
Thu 04:10:54 PM 42.6806 -83.2917 258° West 150 173 2,600 -465 Descending Cleveland Center
Thu 04:11:56 PM 42.6669 -83.3364 248° West 126 145 2,200 -585 Descending Cleveland Center
Thu 04:12:57 PM 42.6678 -83.3844 271° West 115 132 1,400 -787 Descending Cleveland Center

Login

Don't have an account? Register now (free) for customized features, flight alerts, and more!